Time;durP1;ratioP1;P1;durP2;ratioP2;P2;SDS_P1;SDS_P2;PMS_P1;PMS_P2;Temp;Humidity;BMP_temperature;BMP_pressure;BME280_temperature;BME280_humidity;BME280_pressure;Samples;Min_cycle;Max_cycle;Signal;HPM_P1;HPM_P2
2021/03/28 00:00:14;;;;;;;3.2;1.8;;;;;;;4.16;77.7793;950.2796;;;;
2021/03/28 00:02:39;;;;;;;2.6;1.3;;;;;;;4.14;78.13379;950.3848;;;;
2021/03/28 00:05:04;;;;;;;3;1.4;;;;;;;4.18;77.96191;950.3153;;;;
2021/03/28 00:07:33;;;;;;;1.7;1;;;;;;;4.15;78.01172;950.3159;;;;
2021/03/28 00:09:58;;;;;;;3.4;1.1;;;;;;;4.15;77.91016;950.3658;;;;
2021/03/28 00:12:23;;;;;;;2.4;0.8;;;;;;;4.05;78.15234;950.3661;;;;
2021/03/28 00:14:57;;;;;;;1.2;0.7;;;;;;;3.96;78.52832;950.3464;;;;
2021/03/28 00:17:27;;;;;;;3.7;1.2;;;;;;;3.94;78.53418;950.4092;;;;
2021/03/28 00:19:52;;;;;;;1.2;1.1;;;;;;;3.86;79.21777;950.3995;;;;
2021/03/28 00:22:17;;;;;;;2.8;1.1;;;;;;;3.86;79.17285;950.3752;;;;
2021/03/28 00:24:42;;;;;;;1.3;0.9;;;;;;;3.81;78.96094;950.4481;;;;
2021/03/28 00:27:10;;;;;;;2;0.8;;;;;;;3.49;79.72168;950.3794;;;;
2021/03/28 00:29:35;;;;;;;1.4;0.8;;;;;;;3.35;80.32324;950.3342;;;;
2021/03/28 00:32:00;;;;;;;1.1;0.9;;;;;;;3.25;80.48438;950.3444;;;;
2021/03/28 00:34:25;;;;;;;1;0.9;;;;;;;3.18;80.65234;950.3279;;;;
2021/03/28 00:36:51;;;;;;;2.1;1.2;;;;;;;3.17;80.56055;950.2296;;;;
2021/03/28 00:39:16;;;;;;;1.2;0.9;;;;;;;3.15;80.63379;950.3376;;;;
2021/03/28 00:41:41;;;;;;;2.3;0.9;;;;;;;3.16;80.35645;950.3552;;;;
2021/03/28 00:44:06;;;;;;;1.7;0.7;;;;;;;3.05;80.60547;950.2758;;;;
2021/03/28 00:46:31;;;;;;;0.5;0.5;;;;;;;2.92;81.31836;950.3706;;;;
2021/03/28 00:48:56;;;;;;;1.7;1.1;;;;;;;3;81.14355;950.3274;;;;
2021/03/28 00:51:23;;;;;;;1.1;0.6;;;;;;;3.1;80.64746;950.314;;;;
2021/03/28 00:53:47;;;;;;;0.6;0.6;;;;;;;3.14;80.07324;950.2791;;;;
2021/03/28 00:56:12;;;;;;;1.1;0.9;;;;;;;3.19;79.83398;950.3041;;;;
2021/03/28 00:58:37;;;;;;;1.4;0.8;;;;;;;3.26;79.37598;950.2633;;;;
2021/03/28 01:01:02;;;;;;;2;0.8;;;;;;;3.3;78.88965;950.2036;;;;
2021/03/28 01:03:32;;;;;;;1.5;0.9;;;;;;;3.28;78.81836;950.2166;;;;
2021/03/28 01:05:54;;;;;;;1.1;0.7;;;;;;;3.32;78.60059;950.2318;;;;
2021/03/28 01:08:19;;;;;;;0.9;0.8;;;;;;;3.24;78.7207;950.2619;;;;
2021/03/28 01:10:49;;;;;;;0.4;0.4;;;;;;;3.17;78.84375;950.2138;;;;
2021/03/28 01:13:14;;;;;;;0.5;0.5;;;;;;;3.13;79.05957;950.2029;;;;
2021/03/28 01:15:45;;;;;;;0.7;0.7;;;;;;;3.1;79.04297;950.2006;;;;
2021/03/28 01:18:13;;;;;;;0.7;0.7;;;;;;;2.98;79.41211;950.2294;;;;
2021/03/28 01:20:47;;;;;;;1.1;0.8;;;;;;;2.85;79.89453;950.2381;;;;
2021/03/28 01:23:13;;;;;;;1;0.7;;;;;;;2.69;80.56934;950.2101;;;;
2021/03/28 01:25:45;;;;;;;2.6;1.2;;;;;;;2.71;80.54004;950.2067;;;;
2021/03/28 01:28:15;;;;;;;1.3;0.9;;;;;;;2.68;80.58984;950.1262;;;;
2021/03/28 01:30:41;;;;;;;1.4;1;;;;;;;2.63;80.69336;950.1959;;;;
2021/03/28 01:33:06;;;;;;;0.7;0.7;;;;;;;2.59;80.81934;950.2327;;;;
2021/03/28 01:35:38;;;;;;;0.7;0.7;;;;;;;2.59;80.76465;950.2037;;;;
2021/03/28 01:38:03;;;;;;;1;0.9;;;;;;;2.54;80.93359;950.2164;;;;
2021/03/28 01:40:32;;;;;;;1.8;0.9;;;;;;;2.28;81.8584;950.2344;;;;
2021/03/28 01:42:57;;;;;;;0.8;0.8;;;;;;;2.16;82.56348;950.1719;;;;
2021/03/28 01:45:23;;;;;;;0.7;0.7;;;;;;;2.32;82.06836;950.1841;;;;
2021/03/28 01:47:51;;;;;;;0.6;0.6;;;;;;;2.36;81.7041;950.1155;;;;
2021/03/28 01:50:17;;;;;;;0.5;0.5;;;;;;;2.29;81.82813;950.0584;;;;
2021/03/28 01:52:42;;;;;;;0.9;0.8;;;;;;;2.34;81.74707;950.0338;;;;
2021/03/28 01:55:08;;;;;;;0.8;0.6;;;;;;;2.45;81.33105;950.1174;;;;
2021/03/28 01:57:36;;;;;;;0.9;0.5;;;;;;;2.53;80.95313;950.0385;;;;
2021/03/28 02:00:01;;;;;;;1.1;0.7;;;;;;;2.58;80.45996;950.0637;;;;
2021/03/28 02:02:26;;;;;;;1.4;1;;;;;;;2.53;80.21484;949.9623;;;;
2021/03/28 02:04:53;;;;;;;1.1;0.8;;;;;;;2.5;80.32031;949.9659;;;;
2021/03/28 02:07:19;;;;;;;0.8;0.7;;;;;;;2.52;80.27832;949.8848;;;;
2021/03/28 02:09:44;;;;;;;3;0.8;;;;;;;2.48;80.09473;949.9525;;;;
2021/03/28 02:12:12;;;;;;;1.1;0.7;;;;;;;2.4;80.45801;949.8851;;;;
2021/03/28 02:14:38;;;;;;;1.2;0.9;;;;;;;2.32;80.87988;949.9269;;;;
2021/03/28 02:17:24;;;;;;;1.7;0.8;;;;;;;2.25;81.03516;949.7936;;;;
2021/03/28 02:19:52;;;;;;;1.1;0.6;;;;;;;2.21;81.20801;949.8979;;;;
2021/03/28 02:22:20;;;;;;;1.5;0.6;;;;;;;2.2;81.13867;949.8962;;;;
2021/03/28 02:24:49;;;;;;;1.5;0.6;;;;;;;2.02;81.74219;949.8762;;;;
2021/03/28 02:27:18;;;;;;;2;0.7;;;;;;;1.78;83.04883;949.8486;;;;
2021/03/28 02:29:46;;;;;;;0.6;0.6;;;;;;;1.86;83.04102;949.8972;;;;
2021/03/28 02:32:12;;;;;;;0.8;0.7;;;;;;;1.89;82.82422;949.827;;;;
2021/03/28 02:34:38;;;;;;;0.8;0.7;;;;;;;1.92;82.73926;949.8301;;;;
2021/03/28 02:37:03;;;;;;;0.9;0.9;;;;;;;1.83;82.90137;949.8605;;;;
2021/03/28 02:39:30;;;;;;;0.8;0.8;;;;;;;1.74;83.3418;949.8678;;;;
2021/03/28 02:41:59;;;;;;;0.6;0.6;;;;;;;1.57;84.13574;949.8895;;;;
2021/03/28 02:44:30;;;;;;;1.8;0.8;;;;;;;1.39;85.13867;949.8758;;;;
2021/03/28 02:46:55;;;;;;;1;0.9;;;;;;;1.31;85.63867;949.8022;;;;
2021/03/28 02:49:20;;;;;;;1.4;1;;;;;;;1.41;85.53418;949.7599;;;;
2021/03/28 02:51:45;;;;;;;2.6;0.8;;;;;;;1.54;84.97949;949.7935;;;;
2021/03/28 02:54:10;;;;;;;1.7;0.9;;;;;;;1.57;84.52734;949.7797;;;;
2021/03/28 02:56:36;;;;;;;0.7;0.7;;;;;;;1.74;83.91406;949.7258;;;;
2021/03/28 02:59:02;;;;;;;1.1;1;;;;;;;;;;;;;
2021/03/28 03:01:27;;;;;;;1;0.5;;;;;;;;;;;;;
2021/03/28 03:03:52;;;;;;;1.8;0.8;;;;;;;;;;;;;
2021/03/28 03:06:18;;;;;;;1.2;1;;;;;;;;;;;;;
2021/03/28 03:08:43;;;;;;;1;0.7;;;;;;;;;;;;;
2021/03/28 03:11:08;;;;;;;2.8;1;;;;;;;;;;;;;
2021/03/28 03:13:33;;;;;;;1;0.9;;;;;;;;;;;;;
2021/03/28 03:16:04;;;;;;;1.4;0.6;;;;;;;;;;;;;
2021/03/28 03:18:29;;;;;;;1.7;1.2;;;;;;;;;;;;;
2021/03/28 03:20:54;;;;;;;1.3;0.9;;;;;;;;;;;;;
2021/03/28 03:23:20;;;;;;;0.7;0.7;;;;;;;;;;;;;
2021/03/28 03:25:45;;;;;;;0.8;0.7;;;;;;;;;;;;;
2021/03/28 03:28:10;;;;;;;6;0.9;;;;;;;;;;;;;
2021/03/28 03:30:35;;;;;;;1.3;0.8;;;;;;;;;;;;;
2021/03/28 03:33:00;;;;;;;3.3;0.7;;;;;;;;;;;;;
2021/03/28 03:35:25;;;;;;;0.4;0.4;;;;;;;;;;;;;
2021/03/28 03:37:51;;;;;;;1.7;0.7;;;;;;;;;;;;;
2021/03/28 03:40:16;;;;;;;1;0.7;;;;;;;;;;;;;
2021/03/28 03:42:41;;;;;;;1.1;0.8;;;;;;;;;;;;;
2021/03/28 03:45:06;;;;;;;0.9;0.8;;;;;;;;;;;;;
2021/03/28 03:47:31;;;;;;;0.5;0.5;;;;;;;;;;;;;
2021/03/28 03:49:57;;;;;;;0.8;0.6;;;;;;;;;;;;;
2021/03/28 03:52:22;;;;;;;0.7;0.7;;;;;;;;;;;;;
2021/03/28 03:54:47;;;;;;;0.8;0.6;;;;;;;;;;;;;
2021/03/28 03:57:12;;;;;;;0.8;0.7;;;;;;;;;;;;;
2021/03/28 03:59:37;;;;;;;1.4;0.6;;;;;;;;;;;;;
2021/03/28 04:02:30;;;;;;;2;1;;;;;;;2.06;79.29785;950.0639;;;;
2021/03/28 04:04:56;;;;;;;0.5;0.5;;;;;;;1.9;80.0166;950.0812;;;;
2021/03/28 04:07:21;;;;;;;1.2;0.9;;;;;;;1.9;80.31934;950.0522;;;;
2021/03/28 04:09:46;;;;;;;0.9;0.5;;;;;;;1.8;80.76855;950.103;;;;
2021/03/28 04:12:11;;;;;;;0.9;0.6;;;;;;;1.71;81.33496;950.0563;;;;
2021/03/28 04:14:37;;;;;;;1;0.9;;;;;;;1.69;81.57715;950.0619;;;;
2021/03/28 04:17:13;;;;;;;0.8;0.4;;;;;;;1.66;81.75098;950.0481;;;;
2021/03/28 04:19:45;;;;;;;0.6;0.6;;;;;;;1.75;81.52246;950.0759;;;;
2021/03/28 04:22:10;;;;;;;1.8;0.5;;;;;;;1.75;81.70117;950.043;;;;
2021/03/28 04:24:35;;;;;;;0.8;0.8;;;;;;;1.71;81.81348;950.0535;;;;
2021/03/28 04:27:02;;;;;;;1.1;0.9;;;;;;;1.66;82.00684;950.034;;;;
2021/03/28 04:29:27;;;;;;;0.3;0.3;;;;;;;1.68;81.87695;950.0748;;;;
2021/03/28 04:31:55;;;;;;;0.6;0.5;;;;;;;1.68;81.9541;950.0541;;;;
2021/03/28 04:34:22;;;;;;;1.6;0.8;;;;;;;1.73;81.66211;950.0323;;;;
2021/03/28 04:36:47;;;;;;;0.6;0.6;;;;;;;1.69;81.49902;949.9745;;;;
2021/03/28 04:39:12;;;;;;;0.5;0.5;;;;;;;1.67;81.50488;950.0659;;;;
2021/03/28 04:41:37;;;;;;;0.6;0.6;;;;;;;1.7;81.49902;950.0905;;;;
2021/03/28 04:44:02;;;;;;;0.9;0.8;;;;;;;1.71;81.22266;949.9698;;;;
2021/03/28 04:46:27;;;;;;;1.2;1.1;;;;;;;1.65;81.2334;950.0695;;;;
2021/03/28 04:48:52;;;;;;;1;0.6;;;;;;;1.69;81.10742;950.0964;;;;
2021/03/28 04:51:18;;;;;;;1.1;0.9;;;;;;;1.72;80.82227;950.1309;;;;
2021/03/28 04:53:43;;;;;;;0.5;0.5;;;;;;;1.71;80.65234;950.1912;;;;
2021/03/28 04:56:08;;;;;;;1.1;1;;;;;;;1.63;80.75;950.1542;;;;
2021/03/28 04:58:33;;;;;;;0.5;0.4;;;;;;;1.58;81.23242;950.0948;;;;
2021/03/28 05:00:59;;;;;;;0.9;0.7;;;;;;;1.49;81.85156;950.1269;;;;
2021/03/28 05:03:24;;;;;;;1.3;0.6;;;;;;;1.48;81.87207;950.1539;;;;
2021/03/28 05:05:57;;;;;;;2.1;0.7;;;;;;;1.42;82.12695;950.2857;;;;
2021/03/28 05:08:22;;;;;;;0.8;0.6;;;;;;;1.44;82.1875;950.3297;;;;
2021/03/28 05:10:49;;;;;;;0.4;0.4;;;;;;;1.55;81.85156;950.3794;;;;
2021/03/28 05:13:15;;;;;;;1;0.8;;;;;;;1.48;81.91699;950.4082;;;;
2021/03/28 05:15:58;;;;;;;0.6;0.5;;;;;;;1.48;81.87109;950.4324;;;;
2021/03/28 05:18:23;;;;;;;1;0.4;;;;;;;1.54;81.7373;950.3586;;;;
2021/03/28 05:20:50;;;;;;;5.4;0.9;;;;;;;1.63;81.31934;950.4971;;;;
2021/03/28 05:23:20;;;;;;;0.5;0.5;;;;;;;1.54;81.48047;950.5577;;;;
2021/03/28 05:25:45;;;;;;;1.4;0.9;;;;;;;1.67;81.21387;950.6108;;;;
2021/03/28 05:28:14;;;;;;;1.2;0.6;;;;;;;1.59;81.26758;950.6284;;;;
2021/03/28 05:30:44;;;;;;;4.9;0.6;;;;;;;1.41;82.08203;950.668;;;;
2021/03/28 05:33:09;;;;;;;7.1;1.3;;;;;;;1.2;83.02539;950.7009;;;;
2021/03/28 05:35:36;;;;;;;0.8;0.8;;;;;;;1.18;83.12012;950.6261;;;;
2021/03/28 05:38:01;;;;;;;0.4;0.4;;;;;;;1.22;83.05078;950.7681;;;;
2021/03/28 05:40:27;;;;;;;1.5;0.9;;;;;;;1.29;82.90723;950.7776;;;;
2021/03/28 05:42:52;;;;;;;2.6;0.9;;;;;;;1.27;82.79199;950.8121;;;;
2021/03/28 05:45:18;;;;;;;0.5;0.4;;;;;;;1.36;82.66406;950.8528;;;;
2021/03/28 05:47:43;;;;;;;0.4;0.3;;;;;;;1.5;82.12012;950.8762;;;;
2021/03/28 05:50:12;;;;;;;0.7;0.5;;;;;;;1.63;81.94531;950.873;;;;
2021/03/28 05:52:40;;;;;;;1;0.8;;;;;;;2.02;80.62305;950.9073;;;;
2021/03/28 05:55:09;;;;;;;1;0.8;;;;;;;2.67;78.60547;950.8463;;;;
2021/03/28 05:57:35;;;;;;;0.3;0.3;;;;;;;2.97;75.85449;950.9535;;;;
2021/03/28 06:00:54;;;;;;;1.8;0.7;;;;;;;3.17;74.78027;950.8544;;;;
2021/03/28 06:03:19;;;;;;;3;1.1;;;;;;;3.25;74.09766;950.9832;;;;
2021/03/28 06:05:44;;;;;;;4;1.5;;;;;;;3.42;73.65723;950.9788;;;;
2021/03/28 06:08:09;;;;;;;1.4;1;;;;;;;3.68;72.13867;951.0184;;;;
2021/03/28 06:10:35;;;;;;;1;0.9;;;;;;;4.15;70.64258;950.9936;;;;
2021/03/28 06:13:25;;;;;;;1.1;0.8;;;;;;;4.41;69.17871;950.9547;;;;
2021/03/28 06:15:58;;;;;;;1;0.5;;;;;;;4.41;69.02148;950.9537;;;;
2021/03/28 06:18:26;;;;;;;2.1;0.7;;;;;;;4.76;68.49219;950.9622;;;;
2021/03/28 06:20:53;;;;;;;0.9;0.6;;;;;;;5.28;66.88477;951.0859;;;;
2021/03/28 06:23:18;;;;;;;0.5;0.4;;;;;;;5.6;64.90234;951.0403;;;;
2021/03/28 06:25:43;;;;;;;1.6;0.7;;;;;;;5.78;64.01367;951.0553;;;;
2021/03/28 06:28:13;;;;;;;5.3;2.6;;;;;;;5.83;63.72852;951.1152;;;;
2021/03/28 06:30:39;;;;;;;2.8;1.8;;;;;;;5.49;64.12988;951.118;;;;
2021/03/28 06:33:04;;;;;;;1.7;1.1;;;;;;;6.14;62.80176;951.1238;;;;
2021/03/28 06:35:29;;;;;;;0.4;0.4;;;;;;;6.2;62.81152;951.1203;;;;
2021/03/28 06:37:59;;;;;;;1.1;0.5;;;;;;;6.41;61.04395;951.0831;;;;
2021/03/28 06:40:28;;;;;;;1;0.7;;;;;;;6.72;61.21289;951.0944;;;;
2021/03/28 06:42:49;;;;;;;0.7;0.5;;;;;;;7.71;57.62207;950.9999;;;;
2021/03/28 06:45:16;;;;;;;1;0.7;;;;;;;8.26;56.2207;951.0195;;;;
2021/03/28 06:47:41;;;;;;;1.7;0.8;;;;;;;8.55;55.05273;951.0168;;;;
2021/03/28 06:50:06;;;;;;;1.5;0.5;;;;;;;9.21;52.83789;951.0283;;;;
2021/03/28 06:52:31;;;;;;;0.6;0.4;;;;;;;9.22;52.68066;951.0351;;;;
2021/03/28 06:54:56;;;;;;;0.6;0.3;;;;;;;9.43;51.95508;951.0681;;;;
2021/03/28 06:57:21;;;;;;;0.7;0.4;;;;;;;8.94;52.91797;951.0641;;;;
2021/03/28 06:59:49;;;;;;;1;0.7;;;;;;;8.46;55.38281;951.0531;;;;
2021/03/28 07:02:15;;;;;;;0.2;0.2;;;;;;;8.62;54.40234;951.0838;;;;
2021/03/28 07:04:40;;;;;;;0.3;0.3;;;;;;;8.76;54.48926;951.0756;;;;
2021/03/28 07:07:06;;;;;;;0.4;0.4;;;;;;;9.22;52.64648;951.0137;;;;
2021/03/28 07:09:33;;;;;;;0.2;0.2;;;;;;;8.28;54.86035;951.0797;;;;
2021/03/28 07:12:03;;;;;;;0.8;0.2;;;;;;;9.35;54.22168;951.1557;;;;
2021/03/28 07:14:32;;;;;;;0.6;0.3;;;;;;;10.65;51.15332;951.05;;;;
2021/03/28 07:17:00;;;;;;;1.9;0.5;;;;;;;11.52;47.7666;951.1635;;;;
2021/03/28 07:21:03;;;;;;;0.2;0.2;;;;;;;11;48.1416;951.1464;;;;
2021/03/28 07:23:33;;;;;;;1.5;0.5;;;;;;;11.56;46.44141;951.1602;;;;
2021/03/28 07:25:57;;;;;;;2.3;0.6;;;;;;;11.03;46.99023;951.1859;;;;
2021/03/28 07:28:23;;;;;;;0.2;0.2;;;;;;;11.8;47.20117;951.2198;;;;
2021/03/28 07:30:53;;;;;;;0.2;0.2;;;;;;;12.98;42.69043;951.1841;;;;
2021/03/28 07:33:21;;;;;;;0.5;0.4;;;;;;;12.93;42.3418;951.2336;;;;
2021/03/28 07:35:48;;;;;;;0.8;0.5;;;;;;;13.12;42.91016;951.2681;;;;
2021/03/28 07:38:13;;;;;;;0.4;0.2;;;;;;;13.65;42.51367;951.334;;;;
2021/03/28 07:40:38;;;;;;;0.4;0.1;;;;;;;14.13;42.1123;951.3392;;;;
2021/03/28 07:43:03;;;;;;;0.1;0.1;;;;;;;14.86;40.15332;951.3293;;;;
2021/03/28 07:45:41;;;;;;;1.1;0.5;;;;;;;16.53;37.20508;951.2817;;;;
2021/03/28 07:48:06;;;;;;;0.9;0.5;;;;;;;17.43;33.8125;951.3223;;;;
2021/03/28 07:50:31;;;;;;;1.1;0.2;;;;;;;16.51;34.65527;951.2935;;;;
2021/03/28 07:52:57;;;;;;;0;0;;;;;;;16.7;34.99609;951.2924;;;;
2021/03/28 07:55:22;;;;;;;0.9;0.2;;;;;;;16.24;34.84277;951.3409;;;;
2021/03/28 07:57:50;;;;;;;0.3;0.3;;;;;;;17.61;34.10449;951.323;;;;
2021/03/28 08:00:15;;;;;;;0.9;0.5;;;;;;;18.45;31.27539;951.3496;;;;
2021/03/28 08:02:40;;;;;;;1.7;0.6;;;;;;;18.05;32.22266;951.2115;;;;
2021/03/28 08:05:09;;;;;;;1.4;0.5;;;;;;;19.26;30.14453;951.2296;;;;
2021/03/28 08:07:37;;;;;;;0.4;0.3;;;;;;;19.29;30.86914;951.2319;;;;
2021/03/28 08:10:02;;;;;;;1.6;0.4;;;;;;;18.98;29.16016;951.1675;;;;
2021/03/28 08:12:27;;;;;;;2.2;0.6;;;;;;;18.99;30.96387;951.1433;;;;
2021/03/28 08:14:56;;;;;;;0.2;0.2;;;;;;;18.64;31.26465;951.0936;;;;
2021/03/28 08:17:26;;;;;;;1.1;0.6;;;;;;;19.14;28.93652;951.0737;;;;
2021/03/28 08:19:54;;;;;;;0.3;0.3;;;;;;;17.69;31.22168;951.1039;;;;
2021/03/28 08:22:17;;;;;;;0.5;0.3;;;;;;;18.92;29.02734;951.0845;;;;
2021/03/28 08:24:46;;;;;;;0.7;0.2;;;;;;;20.21;28.44727;951.0457;;;;
2021/03/28 08:27:11;;;;;;;3.8;0.4;;;;;;;20.24;28.23828;951.0442;;;;
2021/03/28 08:29:36;;;;;;;0.6;0.2;;;;;;;21.67;26.65527;950.9821;;;;
2021/03/28 08:32:01;;;;;;;0.1;0.1;;;;;;;21.44;27.58984;950.9984;;;;
2021/03/28 08:34:27;;;;;;;0.5;0.2;;;;;;;22.56;25.00684;950.9606;;;;
2021/03/28 08:36:53;;;;;;;0.1;0.1;;;;;;;23.35;25.23926;950.9695;;;;
2021/03/28 08:39:20;;;;;;;0.3;0.2;;;;;;;23.05;23.84766;950.9589;;;;
2021/03/28 08:41:46;;;;;;;0.6;0.4;;;;;;;23.29;23.71973;950.8864;;;;
2021/03/28 08:44:11;;;;;;;0.1;0.1;;;;;;;23.33;24.34473;950.8286;;;;
2021/03/28 08:46:36;;;;;;;0.7;0.5;;;;;;;23.94;23.69629;950.8371;;;;
2021/03/28 08:49:02;;;;;;;0.3;0.3;;;;;;;24.05;23.18359;950.8114;;;;
2021/03/28 08:51:30;;;;;;;0.4;0.4;;;;;;;23.14;24.56934;950.7408;;;;
2021/03/28 08:53:56;;;;;;;0.3;0.2;;;;;;;23.18;23.17285;950.7043;;;;
2021/03/28 08:56:21;;;;;;;0.4;0.3;;;;;;;22.91;24.08789;950.6946;;;;
2021/03/28 08:58:46;;;;;;;0.3;0.3;;;;;;;22.82;22.9668;950.609;;;;
2021/03/28 09:01:11;;;;;;;0.3;0.2;;;;;;;19.41;26.14648;950.5851;;;;
2021/03/28 09:03:36;;;;;;;0.7;0.6;;;;;;;18.74;27.61914;950.56;;;;
2021/03/28 09:06:01;;;;;;;0.1;0.1;;;;;;;18.51;27.45313;950.6114;;;;
2021/03/28 09:08:27;;;;;;;0.8;0.2;;;;;;;18.17;29.4541;950.6554;;;;
2021/03/28 09:10:52;;;;;;;0.5;0.3;;;;;;;18.61;29.1582;950.5168;;;;
2021/03/28 09:13:18;;;;;;;0.4;0.4;;;;;;;19.54;27.62305;950.4897;;;;
2021/03/28 09:15:45;;;;;;;0.2;0.2;;;;;;;20.42;25.40039;950.4548;;;;
2021/03/28 09:18:13;;;;;;;2;0.4;;;;;;;21.98;25.33789;950.3997;;;;
2021/03/28 09:20:40;;;;;;;1.2;0.3;;;;;;;21.93;23.8584;950.3348;;;;
2021/03/28 09:23:08;;;;;;;0.2;0.1;;;;;;;21.07;24.63086;950.3489;;;;
2021/03/28 09:25:33;;;;;;;3.2;0.5;;;;;;;20.17;26.39063;950.2946;;;;
2021/03/28 09:27:58;;;;;;;0.3;0.3;;;;;;;19.47;25.55566;950.2942;;;;
2021/03/28 09:30:25;;;;;;;0.5;0.4;;;;;;;18.92;26.12891;950.2385;;;;
2021/03/28 09:32:49;;;;;;;0.3;0.3;;;;;;;18.13;27.47656;950.2692;;;;
2021/03/28 09:35:14;;;;;;;0.3;0.2;;;;;;;17.38;28.98438;950.3056;;;;
2021/03/28 09:37:39;;;;;;;0.9;0.2;;;;;;;19.3;27.8291;950.2197;;;;
2021/03/28 09:40:04;;;;;;;0.4;0.1;;;;;;;20.39;27.94531;950.132;;;;
2021/03/28 09:42:30;;;;;;;0.3;0.3;;;;;;;20.41;25.76172;950.2025;;;;
2021/03/28 09:44:58;;;;;;;0.5;0.3;;;;;;;19.62;25.58789;950.1846;;;;
2021/03/28 09:47:23;;;;;;;0.3;0.2;;;;;;;19.2;27.03125;950.1561;;;;
2021/03/28 09:49:48;;;;;;;0.8;0.4;;;;;;;19.13;26.23438;950.2137;;;;
2021/03/28 09:52:13;;;;;;;1.9;0.4;;;;;;;18.82;25.69238;950.1942;;;;
2021/03/28 09:54:39;;;;;;;0.2;0.2;;;;;;;17.92;27.20801;950.24;;;;
2021/03/28 09:57:05;;;;;;;0.3;0.2;;;;;;;17.34;28.41309;950.2523;;;;
2021/03/28 09:59:29;;;;;;;0.2;0.1;;;;;;;17.21;29.91113;950.193;;;;
2021/03/28 10:01:54;;;;;;;0.9;0.3;;;;;;;17.14;29.74512;950.2845;;;;
2021/03/28 10:04:19;;;;;;;0.7;0.6;;;;;;;18.26;27.27539;950.2243;;;;
2021/03/28 10:06:44;;;;;;;2.1;0.5;;;;;;;17.65;28.87402;950.2311;;;;
2021/03/28 10:09:12;;;;;;;1.1;0.4;;;;;;;18.01;27.96875;950.1537;;;;
2021/03/28 10:11:38;;;;;;;0.2;0.2;;;;;;;18.16;28.07129;950.1136;;;;
2021/03/28 10:14:03;;;;;;;1.9;0.5;;;;;;;18.48;28.84766;950.0798;;;;
2021/03/28 10:16:32;;;;;;;0.8;0.4;;;;;;;18.65;27.2998;950.0438;;;;
2021/03/28 10:18:57;;;;;;;0.9;0.4;;;;;;;19.19;28.10156;949.989;;;;
2021/03/28 10:21:23;;;;;;;1.2;0.4;;;;;;;19.16;27.43652;949.9342;;;;
2021/03/28 10:23:48;;;;;;;2.6;0.2;;;;;;;20.83;25.48242;949.9189;;;;
2021/03/28 10:26:13;;;;;;;0.5;0.4;;;;;;;20.48;26.04688;949.8784;;;;
2021/03/28 10:28:38;;;;;;;0.6;0.3;;;;;;;21.36;25.8877;949.9091;;;;
2021/03/28 10:31:03;;;;;;;0.3;0.2;;;;;;;19.97;25.95801;949.8431;;;;
2021/03/28 10:33:29;;;;;;;0.1;0.1;;;;;;;18.23;28.65625;949.843;;;;
2021/03/28 10:35:54;;;;;;;0.2;0.1;;;;;;;17.78;28.75488;949.7464;;;;
2021/03/28 10:38:19;;;;;;;0.8;0.4;;;;;;;17.02;30.6875;949.7102;;;;
2021/03/28 10:40:44;;;;;;;0.2;0.1;;;;;;;17.66;30.44141;949.6373;;;;
2021/03/28 10:43:10;;;;;;;0.5;0.3;;;;;;;18.15;31.25391;949.625;;;;
2021/03/28 10:45:35;;;;;;;0.3;0.2;;;;;;;18.6;28.95996;949.5963;;;;
2021/03/28 10:48:00;;;;;;;0.1;0.1;;;;;;;19.33;29.26367;949.4821;;;;
2021/03/28 10:50:25;;;;;;;0.4;0.2;;;;;;;20.46;27.55176;949.4028;;;;
2021/03/28 10:52:50;;;;;;;0.3;0.3;;;;;;;19.98;27.91895;949.3287;;;;
2021/03/28 10:55:33;;;;;;;2.3;0.5;;;;;;;20.36;28.42188;949.3312;;;;
2021/03/28 10:58:01;;;;;;;0.5;0.4;;;;;;;20.48;28.33594;949.307;;;;
2021/03/28 11:00:26;;;;;;;0.2;0.1;;;;;;;20.42;26.77832;949.2953;;;;
2021/03/28 11:02:51;;;;;;;0.1;0.1;;;;;;;20.86;25.40234;949.2667;;;;
2021/03/28 11:05:16;;;;;;;0.1;0.1;;;;;;;21.95;25.14941;949.2661;;;;
2021/03/28 11:07:42;;;;;;;0.1;0.1;;;;;;;22.66;22.90039;949.236;;;;
2021/03/28 11:10:07;;;;;;;0.4;0.1;;;;;;;23.3;22.13379;949.1976;;;;
2021/03/28 11:12:32;;;;;;;0.5;0.3;;;;;;;23.21;20.70703;949.1262;;;;
2021/03/28 11:14:57;;;;;;;0.2;0.2;;;;;;;22.69;22.65527;949.0658;;;;
2021/03/28 11:17:22;;;;;;;0.3;0.3;;;;;;;22.62;23.75488;949.0514;;;;
2021/03/28 11:19:48;;;;;;;1;0.4;;;;;;;22.69;23.96973;949.0535;;;;
2021/03/28 11:22:13;;;;;;;0.5;0.2;;;;;;;21.93;23.4834;948.9607;;;;
2021/03/28 11:24:38;;;;;;;0.1;0.1;;;;;;;22.88;22.32422;948.8705;;;;
2021/03/28 11:27:04;;;;;;;0.5;0.4;;;;;;;23.17;21.29297;948.8703;;;;
2021/03/28 11:29:29;;;;;;;0;0;;;;;;;22.55;22.38965;948.9001;;;;
2021/03/28 11:31:54;;;;;;;0.3;0.3;;;;;;;23.39;20.99805;948.8387;;;;
2021/03/28 11:34:19;;;;;;;0.5;0.4;;;;;;;23.9;21.55176;948.808;;;;
2021/03/28 11:36:44;;;;;;;0.4;0.1;;;;;;;24.07;20.60547;948.7535;;;;
2021/03/28 11:39:09;;;;;;;0.3;0.3;;;;;;;24.88;19.72363;948.7145;;;;
2021/03/28 11:41:34;;;;;;;0.5;0.2;;;;;;;26.24;18.77734;948.7349;;;;
2021/03/28 11:43:59;;;;;;;0.2;0.2;;;;;;;26.97;17.70605;948.6931;;;;
2021/03/28 11:46:26;;;;;;;0.6;0.3;;;;;;;27.64;17.17383;948.6747;;;;
2021/03/28 11:48:51;;;;;;;0.2;0.1;;;;;;;27.63;16.67578;948.715;;;;
2021/03/28 11:51:16;;;;;;;0.1;0.1;;;;;;;28.54;16.30469;948.6848;;;;
2021/03/28 11:53:41;;;;;;;0.1;0.1;;;;;;;29.07;15.68164;948.6867;;;;
2021/03/28 11:56:08;;;;;;;0.8;0.5;;;;;;;28.61;15.57031;948.6957;;;;
2021/03/28 11:58:34;;;;;;;0.6;0.5;;;;;;;28.3;17.65137;948.6547;;;;
2021/03/28 12:00:59;;;;;;;0.1;0.1;;;;;;;27.93;18.32617;948.6122;;;;
2021/03/28 12:03:26;;;;;;;0.6;0.1;;;;;;;27.01;19.80566;948.6276;;;;
2021/03/28 12:05:51;;;;;;;3.6;0.2;;;;;;;25.45;21.31934;948.6617;;;;
2021/03/28 12:08:16;;;;;;;0.1;0.1;;;;;;;23.61;23.18457;948.595;;;;
2021/03/28 12:10:42;;;;;;;0.5;0.5;;;;;;;22.25;26.72559;948.722;;;;
2021/03/28 12:13:08;;;;;;;0.9;0.4;;;;;;;22.15;26.28516;948.7985;;;;
2021/03/28 12:15:47;;;;;;;1.9;0.5;;;;;;;22.02;26.85254;948.7556;;;;
2021/03/28 12:18:13;;;;;;;0.4;0.3;;;;;;;22.31;26.06055;948.7818;;;;
2021/03/28 12:20:39;;;;;;;0.7;0.3;;;;;;;21.69;27.83984;948.7058;;;;
2021/03/28 12:23:04;;;;;;;0.3;0.3;;;;;;;21.37;28.00684;948.6691;;;;
2021/03/28 12:25:29;;;;;;;0.4;0.4;;;;;;;20.84;28.40527;948.6914;;;;
2021/03/28 12:27:54;;;;;;;0.3;0.2;;;;;;;20.79;28.67188;948.7467;;;;
2021/03/28 12:30:19;;;;;;;0.1;0.1;;;;;;;21.67;27.5332;948.6875;;;;
2021/03/28 12:32:44;;;;;;;2.3;0.5;;;;;;;21.06;29.34277;948.7339;;;;
2021/03/28 12:35:10;;;;;;;2.3;0.5;;;;;;;21.73;27.0332;948.7572;;;;
2021/03/28 12:37:35;;;;;;;0.1;0.1;;;;;;;21.08;29.32129;948.7458;;;;
2021/03/28 12:40:00;;;;;;;0.7;0.4;;;;;;;20.59;29.53516;948.7336;;;;
2021/03/28 12:42:26;;;;;;;0.7;0.2;;;;;;;20.02;29.37988;948.6744;;;;
2021/03/28 12:44:51;;;;;;;1.7;0.6;;;;;;;20.74;28.5166;948.7149;;;;
2021/03/28 12:47:17;;;;;;;0.2;0.2;;;;;;;20.78;28.00391;948.7299;;;;
2021/03/28 12:49:42;;;;;;;0.3;0.3;;;;;;;21.13;26.7041;948.6398;;;;
2021/03/28 12:52:07;;;;;;;0.2;0.2;;;;;;;21.13;27.5;948.694;;;;
2021/03/28 12:54:32;;;;;;;0.1;0.1;;;;;;;20.99;27.91211;948.6066;;;;
2021/03/28 12:56:59;;;;;;;0.6;0.3;;;;;;;21.1;27.26465;948.6661;;;;
2021/03/28 12:59:22;;;;;;;0.2;0.2;;;;;;;20.94;28.04883;948.6356;;;;
2021/03/28 13:01:47;;;;;;;0.5;0.3;;;;;;;20.57;28.3877;948.644;;;;
2021/03/28 13:04:12;;;;;;;1.3;0.3;;;;;;;21.37;27.57324;948.5467;;;;
2021/03/28 13:06:40;;;;;;;0.6;0.1;;;;;;;21.1;27.48633;948.5714;;;;
2021/03/28 13:09:04;;;;;;;0.2;0.2;;;;;;;20.86;27.60059;948.5971;;;;
2021/03/28 13:11:29;;;;;;;0.3;0.3;;;;;;;21.06;26.5127;948.5833;;;;
2021/03/28 13:13:54;;;;;;;0.6;0.4;;;;;;;21.36;26.58984;948.5461;;;;
2021/03/28 13:16:19;;;;;;;0.4;0.2;;;;;;;21.45;25.54199;948.532;;;;
2021/03/28 13:18:45;;;;;;;4;0.7;;;;;;;21.51;26.87988;948.5934;;;;
2021/03/28 13:21:09;;;;;;;0.5;0.4;;;;;;;22.15;25.40625;948.572;;;;
2021/03/28 13:23:36;;;;;;;1.3;0.3;;;;;;;22.48;25.49512;948.5655;;;;
2021/03/28 13:26:01;;;;;;;0.1;0.1;;;;;;;22.52;24.68848;948.5117;;;;
2021/03/28 13:28:29;;;;;;;1.4;0.2;;;;;;;22.03;25.69238;948.5342;;;;
2021/03/28 13:30:54;;;;;;;0.2;0.2;;;;;;;22.26;24.62598;948.4063;;;;
2021/03/28 13:33:19;;;;;;;0.5;0.5;;;;;;;22.17;25.1377;948.4709;;;;
2021/03/28 13:35:44;;;;;;;0.8;0.4;;;;;;;22.16;25.17285;948.3697;;;;
2021/03/28 13:38:09;;;;;;;0.5;0.1;;;;;;;21.4;26.00684;948.4467;;;;
2021/03/28 13:40:38;;;;;;;0.1;0.1;;;;;;;21.75;26.33203;948.4381;;;;
2021/03/28 13:43:04;;;;;;;0.2;0.1;;;;;;;20.97;27.31445;948.3786;;;;
2021/03/28 13:45:29;;;;;;;1.1;0.6;;;;;;;20.92;28.34082;948.4619;;;;
2021/03/28 13:47:54;;;;;;;1.1;0.4;;;;;;;20.83;26.49902;948.502;;;;
2021/03/28 13:50:19;;;;;;;1;0.6;;;;;;;20.89;26.1875;948.5109;;;;
2021/03/28 13:52:47;;;;;;;2.1;0.8;;;;;;;20.72;26.77344;948.508;;;;
2021/03/28 13:55:12;;;;;;;0.6;0.5;;;;;;;21.06;26.64258;948.4788;;;;
2021/03/28 13:57:37;;;;;;;0.2;0.2;;;;;;;21.88;26.05859;948.4286;;;;
2021/03/28 14:00:02;;;;;;;0.3;0.2;;;;;;;21.4;25.82031;948.4473;;;;
2021/03/28 14:02:27;;;;;;;0.4;0.3;;;;;;;20.75;26.96191;948.5044;;;;
2021/03/28 14:04:52;;;;;;;0.2;0.1;;;;;;;20.78;26.69531;948.4967;;;;
2021/03/28 14:07:17;;;;;;;0.4;0.2;;;;;;;20.01;27.83887;948.4908;;;;
2021/03/28 14:09:42;;;;;;;0.2;0.1;;;;;;;20.31;28.19629;948.5422;;;;
2021/03/28 14:12:08;;;;;;;0.6;0.2;;;;;;;19.68;28.87891;948.4581;;;;
2021/03/28 14:14:33;;;;;;;0.6;0.4;;;;;;;19.5;29.66016;948.4116;;;;
2021/03/28 14:16:58;;;;;;;0.9;0.2;;;;;;;18.95;29.9834;948.4149;;;;
2021/03/28 14:19:23;;;;;;;1;0.2;;;;;;;18.33;30.5918;948.446;;;;
2021/03/28 14:21:48;;;;;;;0.7;0.4;;;;;;;18.51;30.33691;948.4503;;;;
2021/03/28 14:24:17;;;;;;;0.3;0.3;;;;;;;18.54;29.57129;948.455;;;;
2021/03/28 14:26:41;;;;;;;1.9;0.3;;;;;;;18.48;30.02148;948.3408;;;;
2021/03/28 14:29:06;;;;;;;0.2;0.1;;;;;;;17.83;29.98926;948.4116;;;;
2021/03/28 14:31:31;;;;;;;0.9;0.2;;;;;;;17.89;30.46973;948.4258;;;;
2021/03/28 14:33:57;;;;;;;0.5;0.2;;;;;;;17.6;31.31934;948.4247;;;;
2021/03/28 14:36:25;;;;;;;0.6;0.3;;;;;;;17.23;30.70215;948.4641;;;;
2021/03/28 14:38:51;;;;;;;0.8;0.5;;;;;;;17.31;30.83398;948.4069;;;;
2021/03/28 14:41:16;;;;;;;1;0.6;;;;;;;17.31;31.02051;948.4077;;;;
2021/03/28 14:43:41;;;;;;;0.7;0.6;;;;;;;17.19;32.31055;948.3752;;;;
2021/03/28 14:46:06;;;;;;;0.5;0.2;;;;;;;17.14;31.07813;948.4356;;;;